sensor_id;sensor_type;location;lat;lon;timestamp;pressure;altitude;pressure_sealevel;temperature;humidity
45864;BME280;31579;52.354;16.974;2022-08-19T00:00:59;77.5;;;-146.1;100.0
45864;BME280;31579;52.354;16.974;2022-08-19T00:02:03;85.2;;;-146.1;100.0
45864;BME280;31579;52.354;16.974;2022-08-19T00:03:06;188.9;;;-146.1;100.0
45864;BME280;31579;52.354;16.974;2022-08-19T00:04:10;82.8;;;-146.1;100.0
45864;BME280;31579;52.354;16.974;2022-08-19T00:05:14;87.5;;;-146.1;100.0
45864;BME280;31579;52.354;16.974;2022-08-19T00:06:17;92.7;;;-146.1;100.0
45864;BME280;31579;52.354;16.974;2022-08-19T00:07:36;99.8;;;-146.1;100.0
45864;BME280;31579;52.354;16.974;2022-08-19T00:08:39;111.0;;;-146.1;100.0
45864;BME280;31579;52.354;16.974;2022-08-19T00:09:43;115.1;;;-146.1;100.0
45864;BME280;31579;52.354;16.974;2022-08-19T00:10:47;118.2;;;-146.1;100.0
45864;BME280;31579;52.354;16.974;2022-08-19T00:11:52;120.9;;;-146.1;100.0
45864;BME280;31579;52.354;16.974;2022-08-19T00:12:55;124.2;;;-146.1;100.0
45864;BME280;31579;52.354;16.974;2022-08-19T00:13:59;129.1;;;-146.1;100.0
45864;BME280;31579;52.354;16.974;2022-08-19T00:15:05;135.3;;;-146.1;100.0
45864;BME280;31579;52.354;16.974;2022-08-19T00:16:07;140.8;;;-146.1;100.0
45864;BME280;31579;52.354;16.974;2022-08-19T00:17:11;145.4;;;-146.1;100.0
45864;BME280;31579;52.354;16.974;2022-08-19T00:18:15;145.2;;;-146.1;100.0
45864;BME280;31579;52.354;16.974;2022-08-19T00:19:20;147.6;;;-146.1;100.0
45864;BME280;31579;52.354;16.974;2022-08-19T00:20:23;147.0;;;-146.1;100.0
45864;BME280;31579;52.354;16.974;2022-08-19T00:21:27;149.0;;;-146.1;100.0
45864;BME280;31579;52.354;16.974;2022-08-19T00:22:31;150.8;;;-146.1;100.0
45864;BME280;31579;52.354;16.974;2022-08-19T00:23:36;152.4;;;-146.1;100.0
45864;BME280;31579;52.354;16.974;2022-08-19T00:24:39;152.7;;;-146.1;100.0
45864;BME280;31579;52.354;16.974;2022-08-19T00:25:44;156.7;;;-146.1;100.0
45864;BME280;31579;52.354;16.974;2022-08-19T00:26:48;155.6;;;-146.1;100.0
45864;BME280;31579;52.354;16.974;2022-08-19T00:27:51;160.5;;;-146.1;100.0
45864;BME280;31579;52.354;16.974;2022-08-19T00:28:55;167.9;;;-146.1;100.0
45864;BME280;31579;52.354;16.974;2022-08-19T00:30:16;170.8;;;-146.1;100.0
45864;BME280;31579;52.354;16.974;2022-08-19T00:31:20;178.7;;;-146.1;100.0
45864;BME280;31579;52.354;16.974;2022-08-19T00:32:24;180.3;;;-146.1;100.0
45864;BME280;31579;52.354;16.974;2022-08-19T00:33:28;182.8;;;-146.1;100.0
45864;BME280;31579;52.354;16.974;2022-08-19T00:34:32;184.2;;;-146.1;100.0
45864;BME280;31579;52.354;16.974;2022-08-19T00:35:36;185.3;;;-146.1;100.0
45864;BME280;31579;52.354;16.974;2022-08-19T00:36:40;185.3;;;-146.1;100.0
45864;BME280;31579;52.354;16.974;2022-08-19T00:37:44;186.5;;;-146.1;100.0
45864;BME280;31579;52.354;16.974;2022-08-19T00:38:48;186.1;;;-146.1;100.0
45864;BME280;31579;52.354;16.974;2022-08-19T00:39:52;190.1;;;-146.1;100.0
45864;BME280;31579;52.354;16.974;2022-08-19T00:40:56;190.3;;;-146.1;100.0
45864;BME280;31579;52.354;16.974;2022-08-19T00:42:00;194.1;;;-146.1;100.0
45864;BME280;31579;52.354;16.974;2022-08-19T00:43:08;191.8;;;-146.1;100.0
45864;BME280;31579;52.354;16.974;2022-08-19T00:44:09;198.1;;;-146.1;100.0
45864;BME280;31579;52.354;16.974;2022-08-19T00:45:17;224.4;;;-146.1;100.0
45864;BME280;31579;52.354;16.974;2022-08-19T00:46:16;199.4;;;-146.1;100.0
45864;BME280;31579;52.354;16.974;2022-08-19T00:47:20;199.9;;;-146.1;100.0
45864;BME280;31579;52.354;16.974;2022-08-19T00:48:24;202.5;;;-146.1;100.0
45864;BME280;31579;52.354;16.974;2022-08-19T00:49:33;202.0;;;-146.1;100.0
45864;BME280;31579;52.354;16.974;2022-08-19T00:50:32;204.3;;;-146.1;100.0
45864;BME280;31579;52.354;16.974;2022-08-19T00:51:36;206.1;;;-146.1;100.0
45864;BME280;31579;52.354;16.974;2022-08-19T00:52:42;205.2;;;-146.1;100.0
45864;BME280;31579;52.354;16.974;2022-08-19T00:53:45;207.1;;;-146.1;100.0
45864;BME280;31579;52.354;16.974;2022-08-19T00:54:49;208.7;;;-146.1;100.0
45864;BME280;31579;52.354;16.974;2022-08-19T00:55:53;207.3;;;-146.1;100.0
45864;BME280;31579;52.354;16.974;2022-08-19T00:56:57;208.8;;;-146.1;100.0
45864;BME280;31579;52.354;16.974;2022-08-19T00:58:04;212.1;;;-146.1;100.0
45864;BME280;31579;52.354;16.974;2022-08-19T00:59:04;245.6;;;-146.1;100.0
45864;BME280;31579;52.354;16.974;2022-08-19T01:00:09;298.5;;;-146.1;100.0
45864;BME280;31579;52.354;16.974;2022-08-19T01:01:10;319.9;;;-146.1;100.0
45864;BME280;31579;52.354;16.974;2022-08-19T01:02:18;305.3;;;-146.1;100.0
45864;BME280;31579;52.354;16.974;2022-08-19T01:03:23;295.8;;;-146.1;100.0
45864;BME280;31579;52.354;16.974;2022-08-19T01:04:27;292.9;;;-146.1;100.0
45864;BME280;31579;52.354;16.974;2022-08-19T01:05:31;291.7;;;-146.1;100.0
45864;BME280;31579;52.354;16.974;2022-08-19T01:06:36;290.7;;;-146.1;100.0
45864;BME280;31579;52.354;16.974;2022-08-19T01:07:39;291.7;;;-146.1;100.0
45864;BME280;31579;52.354;16.974;2022-08-19T01:08:43;293.0;;;-146.1;100.0
45864;BME280;31579;52.354;16.974;2022-08-19T01:09:47;292.4;;;-146.1;100.0
45864;BME280;31579;52.354;16.974;2022-08-19T01:10:54;291.5;;;-146.1;100.0
45864;BME280;31579;52.354;16.974;2022-08-19T01:11:55;291.4;;;-146.1;100.0
45864;BME280;31579;52.354;16.974;2022-08-19T01:13:00;290.8;;;-146.1;100.0
45864;BME280;31579;52.354;16.974;2022-08-19T01:14:05;289.1;;;-146.1;100.0
45864;BME280;31579;52.354;16.974;2022-08-19T01:15:10;285.6;;;-146.1;100.0
45864;BME280;31579;52.354;16.974;2022-08-19T01:16:13;284.8;;;-146.1;100.0
45864;BME280;31579;52.354;16.974;2022-08-19T01:17:17;284.0;;;-146.1;100.0
45864;BME280;31579;52.354;16.974;2022-08-19T01:18:21;282.5;;;-146.1;100.0
45864;BME280;31579;52.354;16.974;2022-08-19T01:19:29;281.1;;;-146.1;100.0
45864;BME280;31579;52.354;16.974;2022-08-19T01:20:29;280.9;;;-146.1;100.0
45864;BME280;31579;52.354;16.974;2022-08-19T01:21:37;283.3;;;-146.1;100.0
45864;BME280;31579;52.354;16.974;2022-08-19T01:22:39;281.3;;;-146.1;100.0
45864;BME280;31579;52.354;16.974;2022-08-19T01:23:42;280.4;;;-146.1;100.0
45864;BME280;31579;52.354;16.974;2022-08-19T01:24:45;277.1;;;-146.1;100.0
45864;BME280;31579;52.354;16.974;2022-08-19T01:25:50;275.1;;;-146.1;100.0
45864;BME280;31579;52.354;16.974;2022-08-19T01:26:53;276.7;;;-146.1;100.0
45864;BME280;31579;52.354;16.974;2022-08-19T01:27:57;274.1;;;-146.1;100.0
45864;BME280;31579;52.354;16.974;2022-08-19T01:29:07;264.4;;;-146.1;100.0
45864;BME280;31579;52.354;16.974;2022-08-19T01:30:12;269.9;;;-146.1;100.0
45864;BME280;31579;52.354;16.974;2022-08-19T01:31:17;269.3;;;-146.1;100.0
45864;BME280;31579;52.354;16.974;2022-08-19T01:32:19;266.7;;;-146.1;100.0
45864;BME280;31579;52.354;16.974;2022-08-19T01:33:23;265.4;;;-146.1;100.0
45864;BME280;31579;52.354;16.974;2022-08-19T01:34:27;265.5;;;-146.1;100.0
45864;BME280;31579;52.354;16.974;2022-08-19T01:35:31;262.3;;;-146.1;100.0
45864;BME280;31579;52.354;16.974;2022-08-19T01:36:37;259.7;;;-146.1;100.0
45864;BME280;31579;52.354;16.974;2022-08-19T01:38:43;259.3;;;-146.1;100.0
45864;BME280;31579;52.354;16.974;2022-08-19T01:39:47;254.6;;;-146.1;100.0
45864;BME280;31579;52.354;16.974;2022-08-19T01:40:51;248.1;;;-146.1;100.0
45864;BME280;31579;52.354;16.974;2022-08-19T01:41:55;249.6;;;-146.1;100.0
45864;BME280;31579;52.354;16.974;2022-08-19T01:43:00;250.8;;;-146.1;100.0
45864;BME280;31579;52.354;16.974;2022-08-19T01:44:05;246.9;;;-146.1;100.0
45864;BME280;31579;52.354;16.974;2022-08-19T01:45:08;254.6;;;-146.1;100.0
45864;BME280;31579;52.354;16.974;2022-08-19T01:46:12;253.8;;;-146.1;100.0
45864;BME280;31579;52.354;16.974;2022-08-19T01:47:16;254.1;;;-146.1;100.0
45864;BME280;31579;52.354;16.974;2022-08-19T01:48:20;256.1;;;-146.1;100.0
45864;BME280;31579;52.354;16.974;2022-08-19T01:49:24;255.3;;;-146.1;100.0
45864;BME280;31579;52.354;16.974;2022-08-19T01:50:30;256.1;;;-146.1;100.0
45864;BME280;31579;52.354;16.974;2022-08-19T01:51:32;257.2;;;-146.1;100.0
45864;BME280;31579;52.354;16.974;2022-08-19T01:52:37;260.0;;;-146.1;100.0
45864;BME280;31579;52.354;16.974;2022-08-19T01:53:40;259.7;;;-146.1;100.0
45864;BME280;31579;52.354;16.974;2022-08-19T01:54:44;259.4;;;-146.1;100.0
45864;BME280;31579;52.354;16.974;2022-08-19T01:55:48;257.0;;;-146.1;100.0
45864;BME280;31579;52.354;16.974;2022-08-19T01:56:52;254.2;;;-146.1;100.0
45864;BME280;31579;52.354;16.974;2022-08-19T01:57:58;249.8;;;-146.1;100.0
45864;BME280;31579;52.354;16.974;2022-08-19T01:59:02;250.1;;;-146.1;100.0
45864;BME280;31579;52.354;16.974;2022-08-19T02:00:06;252.2;;;-146.1;100.0
45864;BME280;31579;52.354;16.974;2022-08-19T02:01:08;254.9;;;-146.1;100.0
45864;BME280;31579;52.354;16.974;2022-08-19T02:02:12;257.1;;;-146.1;100.0
45864;BME280;31579;52.354;16.974;2022-08-19T02:03:16;255.3;;;-146.1;100.0
45864;BME280;31579;52.354;16.974;2022-08-19T02:04:20;255.4;;;-146.1;100.0
45864;BME280;31579;52.354;16.974;2022-08-19T02:05:24;256.7;;;-146.1;100.0
45864;BME280;31579;52.354;16.974;2022-08-19T02:06:29;256.0;;;-146.1;100.0
45864;BME280;31579;52.354;16.974;2022-08-19T02:07:34;256.5;;;-146.1;100.0
45864;BME280;31579;52.354;16.974;2022-08-19T02:08:38;254.1;;;-146.1;100.0
45864;BME280;31579;52.354;16.974;2022-08-19T02:09:42;248.2;;;-146.1;100.0
45864;BME280;31579;52.354;16.974;2022-08-19T02:10:47;246.2;;;-146.1;100.0
45864;BME280;31579;52.354;16.974;2022-08-19T02:11:51;243.7;;;-146.1;100.0
45864;BME280;31579;52.354;16.974;2022-08-19T02:12:55;242.1;;;-146.1;100.0
45864;BME280;31579;52.354;16.974;2022-08-19T02:14:03;243.8;;;-146.1;100.0
45864;BME280;31579;52.354;16.974;2022-08-19T02:15:04;230.5;;;-146.1;100.0
45864;BME280;31579;52.354;16.974;2022-08-19T02:16:09;249.0;;;-146.1;100.0
45864;BME280;31579;52.354;16.974;2022-08-19T02:17:13;248.8;;;-146.1;100.0
45864;BME280;31579;52.354;16.974;2022-08-19T02:18:17;246.7;;;-146.1;100.0
45864;BME280;31579;52.354;16.974;2022-08-19T02:19:21;246.5;;;-146.1;100.0
45864;BME280;31579;52.354;16.974;2022-08-19T02:20:25;244.9;;;-146.1;100.0
45864;BME280;31579;52.354;16.974;2022-08-19T02:21:29;243.4;;;-146.1;100.0
45864;BME280;31579;52.354;16.974;2022-08-19T02:22:33;243.9;;;-146.1;100.0
45864;BME280;31579;52.354;16.974;2022-08-19T02:23:37;242.5;;;-146.1;100.0
45864;BME280;31579;52.354;16.974;2022-08-19T02:24:41;242.4;;;-146.1;100.0
45864;BME280;31579;52.354;16.974;2022-08-19T02:25:46;244.5;;;-146.1;100.0
45864;BME280;31579;52.354;16.974;2022-08-19T02:26:49;244.1;;;-146.1;100.0
45864;BME280;31579;52.354;16.974;2022-08-19T02:27:53;242.0;;;-146.1;100.0
45864;BME280;31579;52.354;16.974;2022-08-19T02:28:57;240.3;;;-146.1;100.0
45864;BME280;31579;52.354;16.974;2022-08-19T02:30:01;240.8;;;-146.1;100.0
45864;BME280;31579;52.354;16.974;2022-08-19T02:31:03;268.1;;;-146.1;100.0
45864;BME280;31579;52.354;16.974;2022-08-19T02:32:05;269.5;;;-146.1;100.0
45864;BME280;31579;52.354;16.974;2022-08-19T02:33:10;240.5;;;-146.1;100.0
45864;BME280;31579;52.354;16.974;2022-08-19T02:34:29;238.5;;;-146.1;100.0
45864;BME280;31579;52.354;16.974;2022-08-19T02:35:32;244.4;;;-146.1;100.0
45864;BME280;31579;52.354;16.974;2022-08-19T02:36:37;245.5;;;-146.1;100.0
45864;BME280;31579;52.354;16.974;2022-08-19T02:37:41;237.8;;;-146.1;100.0
45864;BME280;31579;52.354;16.974;2022-08-19T02:38:44;237.6;;;-146.1;100.0
45864;BME280;31579;52.354;16.974;2022-08-19T02:39:48;241.2;;;-146.1;100.0
45864;BME280;31579;52.354;16.974;2022-08-19T02:40:58;245.2;;;-146.1;100.0
45864;BME280;31579;52.354;16.974;2022-08-19T02:41:57;248.5;;;-146.1;100.0
45864;BME280;31579;52.354;16.974;2022-08-19T02:43:05;253.0;;;-146.1;100.0
45864;BME280;31579;52.354;16.974;2022-08-19T02:44:05;252.8;;;-146.1;100.0
45864;BME280;31579;52.354;16.974;2022-08-19T02:45:10;253.8;;;-146.1;100.0
45864;BME280;31579;52.354;16.974;2022-08-19T02:46:18;253.1;;;-146.1;100.0
45864;BME280;31579;52.354;16.974;2022-08-19T02:47:18;251.4;;;-146.1;100.0
45864;BME280;31579;52.354;16.974;2022-08-19T02:48:22;254.0;;;-146.1;100.0
45864;BME280;31579;52.354;16.974;2022-08-19T02:49:25;258.7;;;-146.1;100.0
45864;BME280;31579;52.354;16.974;2022-08-19T02:50:30;259.9;;;-146.1;100.0
45864;BME280;31579;52.354;16.974;2022-08-19T02:51:36;259.5;;;-146.1;100.0
45864;BME280;31579;52.354;16.974;2022-08-19T02:52:37;260.3;;;-146.1;100.0
45864;BME280;31579;52.354;16.974;2022-08-19T02:53:41;262.9;;;-146.1;100.0
45864;BME280;31579;52.354;16.974;2022-08-19T02:54:45;265.8;;;-146.1;100.0
45864;BME280;31579;52.354;16.974;2022-08-19T02:55:50;267.1;;;-146.1;100.0
45864;BME280;31579;52.354;16.974;2022-08-19T02:56:53;266.6;;;-146.1;100.0
45864;BME280;31579;52.354;16.974;2022-08-19T02:57:57;266.3;;;-146.1;100.0
45864;BME280;31579;52.354;16.974;2022-08-19T02:59:02;266.3;;;-146.1;100.0
45864;BME280;31579;52.354;16.974;2022-08-19T03:00:06;263.0;;;-146.1;100.0
45864;BME280;31579;52.354;16.974;2022-08-19T03:01:10;267.8;;;-146.1;100.0
45864;BME280;31579;52.354;16.974;2022-08-19T03:02:13;262.1;;;-146.1;100.0
45864;BME280;31579;52.354;16.974;2022-08-19T03:03:18;262.1;;;-146.1;100.0
45864;BME280;31579;52.354;16.974;2022-08-19T03:04:22;263.1;;;-146.1;100.0
45864;BME280;31579;52.354;16.974;2022-08-19T03:05:24;290.1;;;-146.1;100.0
45864;BME280;31579;52.354;16.974;2022-08-19T03:06:29;267.4;;;-146.1;100.0
45864;BME280;31579;52.354;16.974;2022-08-19T03:07:32;272.5;;;-146.1;100.0
45864;BME280;31579;52.354;16.974;2022-08-19T03:08:37;270.5;;;-146.1;100.0
45864;BME280;31579;52.354;16.974;2022-08-19T03:09:41;269.9;;;-146.1;100.0
45864;BME280;31579;52.354;16.974;2022-08-19T03:10:45;274.0;;;-146.1;100.0
45864;BME280;31579;52.354;16.974;2022-08-19T03:11:48;274.6;;;-146.1;100.0
45864;BME280;31579;52.354;16.974;2022-08-19T03:12:53;274.5;;;-146.1;100.0
45864;BME280;31579;52.354;16.974;2022-08-19T03:13:58;277.8;;;-146.1;100.0
45864;BME280;31579;52.354;16.974;2022-08-19T03:15:02;280.5;;;-146.1;100.0
45864;BME280;31579;52.354;16.974;2022-08-19T03:16:06;280.9;;;-146.1;100.0
45864;BME280;31579;52.354;16.974;2022-08-19T03:17:09;283.1;;;-146.1;100.0
45864;BME280;31579;52.354;16.974;2022-08-19T03:18:15;283.3;;;-146.1;100.0
45864;BME280;31579;52.354;16.974;2022-08-19T03:19:19;284.5;;;-146.1;100.0
45864;BME280;31579;52.354;16.974;2022-08-19T03:20:22;286.6;;;-146.1;100.0
45864;BME280;31579;52.354;16.974;2022-08-19T03:21:28;288.0;;;-146.1;100.0
45864;BME280;31579;52.354;16.974;2022-08-19T03:22:31;290.3;;;-146.1;100.0
45864;BME280;31579;52.354;16.974;2022-08-19T03:23:35;292.0;;;-146.1;100.0
45864;BME280;31579;52.354;16.974;2022-08-19T03:24:39;291.8;;;-146.1;100.0
45864;BME280;31579;52.354;16.974;2022-08-19T03:25:44;295.2;;;-146.1;100.0
45864;BME280;31579;52.354;16.974;2022-08-19T03:26:49;296.7;;;-146.1;100.0
45864;BME280;31579;52.354;16.974;2022-08-19T03:27:51;300.4;;;-146.1;100.0
45864;BME280;31579;52.354;16.974;2022-08-19T03:28:55;302.9;;;-146.1;100.0
45864;BME280;31579;52.354;16.974;2022-08-19T03:29:59;305.0;;;-146.1;100.0
45864;BME280;31579;52.354;16.974;2022-08-19T03:31:02;328.1;;;-146.1;100.0
45864;BME280;31579;52.354;16.974;2022-08-19T03:32:06;305.0;;;-146.1;100.0
45864;BME280;31579;52.354;16.974;2022-08-19T03:33:10;305.8;;;-146.1;100.0
45864;BME280;31579;52.354;16.974;2022-08-19T03:34:16;307.8;;;-146.1;100.0
45864;BME280;31579;52.354;16.974;2022-08-19T03:35:18;308.0;;;-146.1;100.0
45864;BME280;31579;52.354;16.974;2022-08-19T03:36:22;309.6;;;-146.1;100.0
45864;BME280;31579;52.354;16.974;2022-08-19T03:37:24;334.5;;;-146.1;100.0
45864;BME280;31579;52.354;16.974;2022-08-19T03:38:27;327.3;;;-146.1;100.0
45864;BME280;31579;52.354;16.974;2022-08-19T03:39:31;317.2;;;-146.1;100.0
45864;BME280;31579;52.354;16.974;2022-08-19T03:40:36;319.4;;;-146.1;100.0
45864;BME280;31579;52.354;16.974;2022-08-19T03:41:40;321.0;;;-146.1;100.0
45864;BME280;31579;52.354;16.974;2022-08-19T03:42:43;323.4;;;-146.1;100.0
45864;BME280;31579;52.354;16.974;2022-08-19T03:43:47;324.9;;;-146.1;100.0
45864;BME280;31579;52.354;16.974;2022-08-19T03:44:51;327.0;;;-146.1;100.0
45864;BME280;31579;52.354;16.974;2022-08-19T03:46:59;332.2;;;-146.1;100.0
45864;BME280;31579;52.354;16.974;2022-08-19T03:48:01;357.5;;;-146.1;100.0
45864;BME280;31579;52.354;16.974;2022-08-19T03:49:06;338.4;;;-146.1;100.0
45864;BME280;31579;52.354;16.974;2022-08-19T03:50:10;340.6;;;-146.1;100.0
45864;BME280;31579;52.354;16.974;2022-08-19T03:51:18;343.4;;;-146.1;100.0
45864;BME280;31579;52.354;16.974;2022-08-19T03:52:18;345.1;;;-146.1;100.0
45864;BME280;31579;52.354;16.974;2022-08-19T03:53:22;343.7;;;-146.1;100.0
45864;BME280;31579;52.354;16.974;2022-08-19T03:54:25;365.2;;;-146.1;100.0
45864;BME280;31579;52.354;16.974;2022-08-19T03:55:29;347.3;;;-146.1;100.0
45864;BME280;31579;52.354;16.974;2022-08-19T03:56:33;346.0;;;-146.1;100.0
45864;BME280;31579;52.354;16.974;2022-08-19T03:57:37;343.7;;;-146.1;100.0
45864;BME280;31579;52.354;16.974;2022-08-19T03:58:41;344.7;;;-146.1;100.0
45864;BME280;31579;52.354;16.974;2022-08-19T03:59:45;346.6;;;-146.1;100.0
45864;BME280;31579;52.354;16.974;2022-08-19T04:00:49;349.0;;;-146.1;100.0
45864;BME280;31579;52.354;16.974;2022-08-19T04:01:54;349.8;;;-146.1;100.0
45864;BME280;31579;52.354;16.974;2022-08-19T04:02:57;350.4;;;-146.1;100.0
45864;BME280;31579;52.354;16.974;2022-08-19T04:04:01;351.8;;;-146.1;100.0
45864;BME280;31579;52.354;16.974;2022-08-19T04:05:06;351.7;;;-146.1;100.0
45864;BME280;31579;52.354;16.974;2022-08-19T04:06:12;352.9;;;-146.1;100.0
45864;BME280;31579;52.354;16.974;2022-08-19T04:07:14;352.6;;;-146.1;100.0
45864;BME280;31579;52.354;16.974;2022-08-19T04:08:18;354.3;;;-146.1;100.0
45864;BME280;31579;52.354;16.974;2022-08-19T04:09:22;355.9;;;-146.1;100.0
45864;BME280;31579;52.354;16.974;2022-08-19T04:10:24;375.1;;;-146.1;100.0
45864;BME280;31579;52.354;16.974;2022-08-19T04:11:28;368.1;;;-146.1;100.0
45864;BME280;31579;52.354;16.974;2022-08-19T04:12:31;357.0;;;-146.1;100.0
45864;BME280;31579;52.354;16.974;2022-08-19T04:13:35;358.1;;;-146.1;100.0
45864;BME280;31579;52.354;16.974;2022-08-19T04:14:39;358.0;;;-146.1;100.0
45864;BME280;31579;52.354;16.974;2022-08-19T04:15:43;358.4;;;-146.1;100.0
45864;BME280;31579;52.354;16.974;2022-08-19T04:16:47;360.5;;;-146.1;100.0
45864;BME280;31579;52.354;16.974;2022-08-19T04:17:51;360.7;;;-146.1;100.0
45864;BME280;31579;52.354;16.974;2022-08-19T04:18:55;361.8;;;-146.1;100.0
45864;BME280;31579;52.354;16.974;2022-08-19T04:19:59;362.5;;;-146.1;100.0
45864;BME280;31579;52.354;16.974;2022-08-19T04:21:01;380.5;;;-146.1;100.0
45864;BME280;31579;52.354;16.974;2022-08-19T04:22:06;361.1;;;-146.1;100.0
45864;BME280;31579;52.354;16.974;2022-08-19T04:23:10;361.5;;;-146.1;100.0
45864;BME280;31579;52.354;16.974;2022-08-19T04:24:14;362.2;;;-146.1;100.0
45864;BME280;31579;52.354;16.974;2022-08-19T04:25:18;363.4;;;-146.1;100.0
45864;BME280;31579;52.354;16.974;2022-08-19T04:26:23;366.4;;;-146.1;100.0
45864;BME280;31579;52.354;16.974;2022-08-19T04:27:24;385.3;;;-146.1;100.0
45864;BME280;31579;52.354;16.974;2022-08-19T04:28:27;378.8;;;-146.1;100.0
45864;BME280;31579;52.354;16.974;2022-08-19T04:29:31;365.2;;;-146.1;100.0
45864;BME280;31579;52.354;16.974;2022-08-19T04:31:39;369.0;;;-146.1;100.0
45864;BME280;31579;52.354;16.974;2022-08-19T04:32:43;370.6;;;-146.1;100.0
45864;BME280;31579;52.354;16.974;2022-08-19T04:33:47;370.6;;;-146.1;100.0
45864;BME280;31579;52.354;16.974;2022-08-19T04:34:52;371.6;;;-146.1;100.0
45864;BME280;31579;52.354;16.974;2022-08-19T04:35:56;371.8;;;-146.1;100.0
45864;BME280;31579;52.354;16.974;2022-08-19T04:37:00;374.4;;;-146.1;100.0
45864;BME280;31579;52.354;16.974;2022-08-19T04:38:04;373.5;;;-146.1;100.0
45864;BME280;31579;52.354;16.974;2022-08-19T04:39:10;372.9;;;-146.1;100.0
45864;BME280;31579;52.354;16.974;2022-08-19T04:40:12;375.6;;;-146.1;100.0
45864;BME280;31579;52.354;16.974;2022-08-19T04:41:16;376.4;;;-146.1;100.0
45864;BME280;31579;52.354;16.974;2022-08-19T04:42:20;376.7;;;-146.1;100.0
45864;BME280;31579;52.354;16.974;2022-08-19T04:43:24;375.6;;;-146.1;100.0
45864;BME280;31579;52.354;16.974;2022-08-19T04:44:26;394.9;;;-146.1;100.0
45864;BME280;31579;52.354;16.974;2022-08-19T04:45:30;377.6;;;-146.1;100.0
45864;BME280;31579;52.354;16.974;2022-08-19T04:46:34;374.7;;;-146.1;100.0
45864;BME280;31579;52.354;16.974;2022-08-19T04:47:38;372.0;;;-146.1;100.0
45864;BME280;31579;52.354;16.974;2022-08-19T04:48:42;371.3;;;-146.1;100.0
45864;BME280;31579;52.354;16.974;2022-08-19T04:49:46;369.8;;;-146.1;100.0
45864;BME280;31579;52.354;16.974;2022-08-19T04:50:50;370.5;;;-146.1;100.0
45864;BME280;31579;52.354;16.974;2022-08-19T04:51:54;366.8;;;-146.1;100.0
45864;BME280;31579;52.354;16.974;2022-08-19T04:52:58;358.0;;;-146.1;100.0
45864;BME280;31579;52.354;16.974;2022-08-19T04:54:02;351.3;;;-146.1;100.0
45864;BME280;31579;52.354;16.974;2022-08-19T04:55:06;348.5;;;-146.1;100.0
45864;BME280;31579;52.354;16.974;2022-08-19T04:56:12;343.2;;;-146.1;100.0
45864;BME280;31579;52.354;16.974;2022-08-19T04:57:14;336.3;;;-146.1;100.0
45864;BME280;31579;52.354;16.974;2022-08-19T04:58:18;325.9;;;-146.1;100.0
45864;BME280;31579;52.354;16.974;2022-08-19T04:59:23;317.5;;;-146.1;100.0
45864;BME280;31579;52.354;16.974;2022-08-19T05:00:27;313.4;;;-146.1;100.0
45864;BME280;31579;52.354;16.974;2022-08-19T05:01:31;306.3;;;-146.1;100.0
45864;BME280;31579;52.354;16.974;2022-08-19T05:02:35;298.6;;;-146.1;100.0
45864;BME280;31579;52.354;16.974;2022-08-19T05:03:39;300.6;;;-146.1;100.0
45864;BME280;31579;52.354;16.974;2022-08-19T05:04:43;287.7;;;-146.1;100.0
45864;BME280;31579;52.354;16.974;2022-08-19T05:05:47;284.9;;;-146.1;100.0
45864;BME280;31579;52.354;16.974;2022-08-19T05:06:51;282.7;;;-146.1;100.0
45864;BME280;31579;52.354;16.974;2022-08-19T05:07:56;272.0;;;-146.1;100.0
45864;BME280;31579;52.354;16.974;2022-08-19T05:09:00;266.0;;;-146.1;100.0
45864;BME280;31579;52.354;16.974;2022-08-19T05:10:04;260.1;;;-146.1;100.0
45864;BME280;31579;52.354;16.974;2022-08-19T05:11:09;256.9;;;-146.1;100.0
45864;BME280;31579;52.354;16.974;2022-08-19T05:12:12;261.2;;;-146.1;100.0
45864;BME280;31579;52.354;16.974;2022-08-19T05:13:17;263.1;;;-146.1;100.0
45864;BME280;31579;52.354;16.974;2022-08-19T05:14:20;269.0;;;-146.1;100.0
45864;BME280;31579;52.354;16.974;2022-08-19T05:15:25;259.6;;;-146.1;100.0
45864;BME280;31579;52.354;16.974;2022-08-19T05:16:29;269.3;;;-146.1;100.0
45864;BME280;31579;52.354;16.974;2022-08-19T05:17:33;259.3;;;-146.1;100.0
45864;BME280;31579;52.354;16.974;2022-08-19T05:18:37;258.0;;;-146.1;100.0
45864;BME280;31579;52.354;16.974;2022-08-19T05:19:41;241.8;;;-146.1;100.0
45864;BME280;31579;52.354;16.974;2022-08-19T05:20:45;245.0;;;-146.1;100.0
45864;BME280;31579;52.354;16.974;2022-08-19T05:21:49;236.0;;;-146.1;100.0
45864;BME280;31579;52.354;16.974;2022-08-19T05:22:53;231.3;;;-146.1;100.0
45864;BME280;31579;52.354;16.974;2022-08-19T05:23:57;212.4;;;-146.1;100.0
45864;BME280;31579;52.354;16.974;2022-08-19T05:25:02;206.6;;;-146.1;100.0
45864;BME280;31579;52.354;16.974;2022-08-19T05:26:06;199.1;;;-146.1;100.0
45864;BME280;31579;52.354;16.974;2022-08-19T05:27:10;197.5;;;-146.1;100.0
45864;BME280;31579;52.354;16.974;2022-08-19T05:28:14;193.2;;;-146.1;100.0
45864;BME280;31579;52.354;16.974;2022-08-19T05:29:19;183.9;;;-146.1;100.0
45864;BME280;31579;52.354;16.974;2022-08-19T05:30:22;181.1;;;-146.1;100.0
45864;BME280;31579;52.354;16.974;2022-08-19T05:31:24;191.7;;;-146.1;100.0
45864;BME280;31579;52.354;16.974;2022-08-19T05:32:26;189.4;;;-146.1;100.0
45864;BME280;31579;52.354;16.974;2022-08-19T05:33:30;153.3;;;-146.1;100.0
45864;BME280;31579;52.354;16.974;2022-08-19T05:34:34;132.1;;;-146.1;100.0
45864;BME280;31579;52.354;16.974;2022-08-19T05:35:38;131.9;;;-146.1;100.0
45864;BME280;31579;52.354;16.974;2022-08-19T05:36:42;109.4;;;-146.1;100.0
45864;BME280;31579;52.354;16.974;2022-08-19T05:37:46;89.5;;;-146.1;100.0
45864;BME280;31579;52.354;16.974;2022-08-19T05:38:50;84.9;;;-146.1;100.0
45864;BME280;31579;52.354;16.974;2022-08-19T05:39:54;74.6;;;-146.1;100.0
45864;BME280;31579;52.354;16.974;2022-08-19T05:40:58;75.8;;;-146.1;100.0
45864;BME280;31579;52.354;16.974;2022-08-19T05:42:04;81.0;;;-146.1;100.0
45864;BME280;31579;52.354;16.974;2022-08-19T05:43:06;80.0;;;-146.1;100.0
45864;BME280;31579;52.354;16.974;2022-08-19T05:44:10;76.5;;;-146.1;100.0
45864;BME280;31579;52.354;16.974;2022-08-19T05:45:14;78.2;;;-146.1;100.0
45864;BME280;31579;52.354;16.974;2022-08-19T05:46:18;46.4;;;-146.1;100.0
45864;BME280;31579;52.354;16.974;2022-08-19T05:47:22;30.0;;;-146.1;100.0
45864;BME280;31579;52.354;16.974;2022-08-19T05:48:24;60.9;;;-146.1;100.0